Time;durP1;ratioP1;P1;durP2;ratioP2;P2;SDS_P1;SDS_P2;PMS_P1;PMS_P2;Temp;Humidity;BMP_temperature;BMP_pressure;BME280_temperature;BME280_humidity;BME280_pressure;Samples;Min_cycle;Max_cycle;Signal;HPM_P1;HPM_P2
2023/11/23 00:00:54;;;;;;;0.30;0.30;;;3.50;99.90;;;;;;5104847;28;20207;-74
2023/11/23 00:03:20;;;;;;;0.30;0.30;;;3.50;99.90;;;;;;5104440;28;20235;-74
2023/11/23 00:05:46;;;;;;;0.30;0.30;;;3.50;99.90;;;;;;5106876;28;20290;-74
2023/11/23 00:08:12;;;;;;;0.30;0.20;;;3.50;99.90;;;;;;5107480;27;20191;-74
2023/11/23 00:10:37;;;;;;;0.30;0.30;;;3.50;99.90;;;;;;5107674;28;20505;-74
2023/11/23 00:13:03;;;;;;;0.30;0.30;;;3.40;99.90;;;;;;5107225;28;20284;-74
2023/11/23 00:15:29;;;;;;;0.30;0.30;;;3.40;99.90;;;;;;5107301;28;20168;-76
2023/11/23 00:17:55;;;;;;;0.30;0.30;;;3.40;99.90;;;;;;5105933;28;20667;-74
2023/11/23 00:20:20;;;;;;;0.30;0.30;;;3.40;99.90;;;;;;5107819;28;20451;-74
2023/11/23 00:22:46;;;;;;;0.30;0.30;;;3.30;99.90;;;;;;5106720;28;20179;-75
2023/11/23 00:25:13;;;;;;;0.30;0.30;;;3.40;99.90;;;;;;5107437;28;20839;-74
2023/11/23 00:27:39;;;;;;;0.30;0.30;;;3.30;99.90;;;;;;5105297;28;20240;-76
2023/11/23 00:30:06;;;;;;;0.30;0.30;;;3.30;99.90;;;;;;5107408;28;20600;-75
2023/11/23 00:32:33;;;;;;;0.30;0.30;;;3.30;99.90;;;;;;5105539;28;20458;-74
2023/11/23 00:34:58;;;;;;;0.30;0.30;;;3.30;99.90;;;;;;5105697;28;20208;-75
2023/11/23 00:37:24;;;;;;;0.30;0.30;;;3.30;99.90;;;;;;5106679;28;20172;-75
2023/11/23 00:39:50;;;;;;;0.30;0.20;;;3.30;99.90;;;;;;5107369;28;20834;-74
2023/11/23 00:42:15;;;;;;;0.30;0.20;;;3.30;99.90;;;;;;5106690;28;20197;-75
2023/11/23 00:44:41;;;;;;;0.30;0.30;;;3.30;99.90;;;;;;5106913;27;20202;-75
2023/11/23 00:47:07;;;;;;;0.30;0.30;;;3.20;99.90;;;;;;5106627;28;20191;-74
2023/11/23 00:49:35;;;;;;;0.30;0.30;;;3.20;99.90;;;;;;5106851;28;20556;-75
2023/11/23 00:52:01;;;;;;;0.30;0.20;;;3.20;99.90;;;;;;5106649;28;20485;-76
2023/11/23 00:54:37;;;;;;;0.30;0.23;;;3.10;99.90;;;;;;5105315;28;20651;-74
2023/11/23 00:57:04;;;;;;;0.30;0.30;;;3.10;99.90;;;;;;5105170;28;20410;-75
2023/11/23 00:59:30;;;;;;;0.30;0.20;;;3.10;99.90;;;;;;5105197;28;20199;-75
2023/11/23 01:01:56;;;;;;;0.30;0.30;;;3.10;99.90;;;;;;5105045;28;20286;-75
2023/11/23 01:04:21;;;;;;;0.30;0.30;;;3.10;99.90;;;;;;5106458;28;20195;-75
2023/11/23 01:06:47;;;;;;;0.30;0.20;;;3.10;99.90;;;;;;5106419;27;20176;-74
2023/11/23 01:09:13;;;;;;;0.30;0.30;;;3.20;99.90;;;;;;5106325;28;20187;-75
2023/11/23 01:11:39;;;;;;;0.30;0.30;;;3.10;99.90;;;;;;5106563;28;20179;-74
2023/11/23 01:14:08;;;;;;;0.30;0.30;;;3.10;99.90;;;;;;5106396;28;20402;-75
2023/11/23 01:16:33;;;;;;;0.30;0.20;;;3.10;99.90;;;;;;5106262;28;20223;-75
2023/11/23 01:18:59;;;;;;;0.30;0.30;;;3.10;99.90;;;;;;5104948;28;20260;-75
2023/11/23 01:21:25;;;;;;;0.30;0.30;;;3.10;99.90;;;;;;5104854;28;20415;-75
2023/11/23 01:23:50;;;;;;;0.30;0.20;;;3.20;99.90;;;;;;5105410;28;20802;-75
2023/11/23 01:26:16;;;;;;;0.30;0.30;;;3.20;99.90;;;;;;5105710;28;20172;-75
2023/11/23 01:28:42;;;;;;;0.30;0.30;;;3.20;99.90;;;;;;5103468;28;20521;-76
2023/11/23 01:31:09;;;;;;;0.30;0.30;;;3.20;99.90;;;;;;5106146;28;20411;-75
2023/11/23 01:33:37;;;;;;;0.30;0.30;;;3.20;99.90;;;;;;5104063;28;20696;-74
2023/11/23 01:36:04;;;;;;;0.30;0.30;;;3.20;99.90;;;;;;5104797;28;20178;-73
2023/11/23 01:38:29;;;;;;;0.30;0.30;;;3.20;99.90;;;;;;5105824;28;20578;-74
2023/11/23 01:40:55;;;;;;;0.30;0.30;;;3.20;99.90;;;;;;5106072;28;20249;-75
2023/11/23 01:43:21;;;;;;;0.30;0.30;;;3.10;99.90;;;;;;5105805;28;20455;-76
2023/11/23 01:45:47;;;;;;;0.30;0.20;;;3.10;99.90;;;;;;5106302;28;20171;-74
2023/11/23 01:48:14;;;;;;;0.30;0.20;;;3.10;99.90;;;;;;5105852;28;20312;-74
2023/11/23 01:50:41;;;;;;;0.30;0.20;;;3.10;99.90;;;;;;5106237;28;20163;-74
2023/11/23 01:53:09;;;;;;;0.30;0.30;;;3.10;99.90;;;;;;5104340;28;20230;-77
2023/11/23 01:55:35;;;;;;;0.30;0.30;;;3.10;99.90;;;;;;5104747;28;20189;-74
2023/11/23 01:58:04;;;;;;;0.30;0.30;;;3.20;99.90;;;;;;5104277;28;20214;-75
2023/11/23 02:00:30;;;;;;;0.30;0.30;;;3.20;99.90;;;;;;5106183;28;20178;-75
2023/11/23 02:02:59;;;;;;;0.30;0.30;;;3.20;99.90;;;;;;5105466;28;20841;-74
2023/11/23 02:05:25;;;;;;;0.30;0.30;;;3.20;99.90;;;;;;5104474;28;20183;-75
2023/11/23 02:07:51;;;;;;;0.30;0.30;;;3.20;99.90;;;;;;5105655;28;20172;-74
2023/11/23 02:10:20;;;;;;;0.30;0.30;;;3.20;99.90;;;;;;5105883;28;20175;-75
2023/11/23 02:12:52;;;;;;;0.30;0.20;;;3.20;99.90;;;;;;5105318;28;20210;-76
2023/11/23 02:15:18;;;;;;;0.30;0.20;;;3.20;99.90;;;;;;5105891;28;20273;-74
2023/11/23 02:17:44;;;;;;;0.30;0.20;;;3.20;99.90;;;;;;5105273;28;20224;-76
2023/11/23 02:20:10;;;;;;;0.30;0.20;;;3.10;99.90;;;;;;5105636;28;20449;-75
2023/11/23 02:22:37;;;;;;;0.30;0.30;;;3.10;99.90;;;;;;5104107;28;20180;-75
2023/11/23 02:25:06;;;;;;;0.30;0.30;;;3.10;99.90;;;;;;5105678;28;20187;-74
2023/11/23 02:27:35;;;;;;;0.30;0.30;;;3.10;99.90;;;;;;5105026;28;20168;-76
2023/11/23 02:30:01;;;;;;;0.30;0.30;;;3.10;99.90;;;;;;5105060;28;20282;-74
2023/11/23 02:32:27;;;;;;;0.30;0.30;;;3.10;99.90;;;;;;5104070;28;20220;-74
2023/11/23 02:34:52;;;;;;;0.30;0.30;;;3.10;99.90;;;;;;5104153;28;20195;-74
2023/11/23 02:37:18;;;;;;;0.30;0.30;;;3.00;99.90;;;;;;5105282;28;20542;-74
2023/11/23 02:39:44;;;;;;;0.30;0.30;;;3.10;99.90;;;;;;5103839;28;20454;-76
2023/11/23 02:42:09;;;;;;;0.30;0.30;;;3.00;99.90;;;;;;5105686;28;20180;-75
2023/11/23 02:44:35;;;;;;;0.30;0.30;;;3.00;99.90;;;;;;5108933;28;20502;-75
2023/11/23 02:47:01;;;;;;;0.30;0.30;;;3.10;99.90;;;;;;5109323;28;20387;-74
2023/11/23 02:49:27;;;;;;;0.30;0.30;;;3.10;99.90;;;;;;5098650;28;20462;-74
2023/11/23 02:51:53;;;;;;;0.30;0.30;;;3.10;99.90;;;;;;5087475;28;20250;-75
2023/11/23 02:54:19;;;;;;;0.30;0.30;;;3.10;99.90;;;;;;5088561;28;20411;-74
2023/11/23 02:56:44;;;;;;;0.30;0.30;;;3.00;99.90;;;;;;5103777;28;20168;-75
2023/11/23 02:59:10;;;;;;;0.30;0.20;;;3.10;99.90;;;;;;5107332;28;20234;-75
2023/11/23 03:01:36;;;;;;;0.30;0.20;;;3.00;99.90;;;;;;5107583;28;20184;-74
2023/11/23 03:04:04;;;;;;;0.30;0.20;;;3.00;99.90;;;;;;5103767;28;20204;-74
2023/11/23 03:06:30;;;;;;;0.30;0.30;;;3.00;99.90;;;;;;5088185;28;20400;-76
2023/11/23 03:08:56;;;;;;;0.30;0.30;;;3.00;99.90;;;;;;5088286;28;20208;-76
2023/11/23 03:11:24;;;;;;;0.30;0.20;;;3.00;99.90;;;;;;5087012;28;20271;-74
2023/11/23 03:13:51;;;;;;;0.30;0.20;;;3.00;99.90;;;;;;5087602;28;20478;-75
2023/11/23 03:16:17;;;;;;;0.30;0.30;;;3.00;99.90;;;;;;5087886;28;20232;-76
2023/11/23 03:18:43;;;;;;;0.30;0.20;;;3.00;99.90;;;;;;5087917;28;20602;-75
2023/11/23 03:21:11;;;;;;;0.30;0.20;;;2.90;99.90;;;;;;5088316;28;20264;-74
2023/11/23 03:23:37;;;;;;;0.30;0.30;;;2.90;99.90;;;;;;5087566;28;20207;-75
2023/11/23 03:26:03;;;;;;;0.30;0.20;;;2.90;99.90;;;;;;5088132;28;20426;-74
2023/11/23 03:28:30;;;;;;;0.30;0.30;;;2.90;99.90;;;;;;5085354;28;20484;-74
2023/11/23 03:30:56;;;;;;;0.30;0.30;;;2.90;99.90;;;;;;5087757;28;20184;-75
2023/11/23 03:33:22;;;;;;;0.30;0.30;;;2.90;99.90;;;;;;5088051;28;20223;-74
2023/11/23 03:35:50;;;;;;;0.30;0.30;;;2.80;99.90;;;;;;5088302;28;20808;-74
2023/11/23 03:38:15;;;;;;;0.30;0.20;;;2.90;99.90;;;;;;5087863;28;20498;-75
2023/11/23 03:40:41;;;;;;;0.30;0.30;;;2.80;99.90;;;;;;5087593;28;20637;-74
2023/11/23 03:43:07;;;;;;;0.30;0.30;;;2.80;99.90;;;;;;5087400;28;20449;-74
2023/11/23 03:45:33;;;;;;;0.30;0.30;;;2.80;99.90;;;;;;5088191;28;20180;-75
2023/11/23 03:47:59;;;;;;;0.30;0.20;;;2.90;99.90;;;;;;5087454;28;20196;-75
2023/11/23 03:50:24;;;;;;;0.30;0.30;;;2.90;99.90;;;;;;5087690;28;20785;-75
2023/11/23 03:52:51;;;;;;;0.30;0.27;;;2.90;99.90;;;;;;5085367;28;20212;-75
2023/11/23 03:55:17;;;;;;;0.30;0.30;;;2.90;99.90;;;;;;5086120;28;20187;-74
2023/11/23 03:57:43;;;;;;;0.30;0.20;;;2.80;99.90;;;;;;5087230;28;20169;-75
2023/11/23 04:00:10;;;;;;;0.30;0.20;;;2.80;99.90;;;;;;5087829;28;20384;-74
2023/11/23 04:02:36;;;;;;;0.30;0.20;;;2.70;99.90;;;;;;5085928;28;20188;-74
2023/11/23 04:05:01;;;;;;;0.30;0.20;;;2.80;99.90;;;;;;5087107;28;20169;-75
2023/11/23 04:07:27;;;;;;;0.30;0.30;;;2.80;99.90;;;;;;5086036;28;20188;-74
2023/11/23 04:09:53;;;;;;;0.30;0.20;;;2.70;99.90;;;;;;5087125;28;21061;-74
2023/11/23 04:12:18;;;;;;;0.30;0.30;;;2.70;99.90;;;;;;5085456;28;20227;-75
2023/11/23 04:14:44;;;;;;;0.30;0.30;;;2.70;99.90;;;;;;5068650;28;20760;-75
2023/11/23 04:17:10;;;;;;;0.30;0.30;;;2.60;99.90;;;;;;5086766;28;20216;-74
2023/11/23 04:19:35;;;;;;;0.30;0.20;;;2.60;99.90;;;;;;5085821;28;20765;-76
2023/11/23 04:22:03;;;;;;;0.30;0.20;;;2.60;99.90;;;;;;5086736;28;20467;-74
2023/11/23 04:24:28;;;;;;;0.30;0.30;;;2.60;99.90;;;;;;5086880;28;20611;-77
2023/11/23 04:26:54;;;;;;;0.30;0.30;;;2.60;99.90;;;;;;5085585;28;20260;-75
2023/11/23 04:29:20;;;;;;;0.30;0.30;;;2.50;99.90;;;;;;5085099;28;20681;-74
2023/11/23 04:31:45;;;;;;;0.30;0.30;;;2.50;99.90;;;;;;5084519;28;20176;-77
2023/11/23 04:34:11;;;;;;;0.30;0.30;;;2.50;99.90;;;;;;5086560;28;20416;-77
2023/11/23 04:36:38;;;;;;;0.30;0.30;;;2.40;99.90;;;;;;5086951;28;20399;-74
2023/11/23 04:39:05;;;;;;;0.30;0.30;;;2.40;99.90;;;;;;5085182;28;20986;-75
2023/11/23 04:41:30;;;;;;;0.30;0.30;;;2.30;99.90;;;;;;5086583;28;20149;-75
2023/11/23 04:43:56;;;;;;;0.30;0.30;;;2.30;99.90;;;;;;5084799;28;20543;-75
2023/11/23 04:46:22;;;;;;;0.30;0.30;;;2.20;99.90;;;;;;5086700;28;20168;-75
2023/11/23 04:48:48;;;;;;;0.30;0.30;;;2.20;99.90;;;;;;5086596;28;20656;-74
2023/11/23 04:51:16;;;;;;;0.30;0.30;;;2.10;99.90;;;;;;5086805;28;20238;-74
2023/11/23 04:53:42;;;;;;;0.30;0.30;;;2.10;99.90;;;;;;5086006;28;20209;-75
2023/11/23 04:56:08;;;;;;;12.43;11.70;;;2.10;99.90;;;;;;5087221;28;20245;-74
2023/11/23 04:58:33;;;;;;;0.30;0.30;;;2.00;99.90;;;;;;5084164;28;20861;-75
2023/11/23 05:01:00;;;;;;;0.30;0.30;;;2.00;99.90;;;;;;5087058;28;20411;-74
2023/11/23 05:03:28;;;;;;;0.30;0.30;;;2.00;99.90;;;;;;5085369;28;20180;-75
2023/11/23 05:05:54;;;;;;;0.30;0.30;;;2.00;99.90;;;;;;5083637;28;20669;-74
2023/11/23 05:08:20;;;;;;;0.30;0.30;;;2.00;99.90;;;;;;5086086;28;20192;-73
2023/11/23 05:10:46;;;;;;;0.30;0.30;;;2.00;99.90;;;;;;5085836;28;20760;-75
2023/11/23 05:13:12;;;;;;;0.30;0.30;;;2.00;99.90;;;;;;5084301;28;20319;-74
2023/11/23 05:15:39;;;;;;;0.30;0.20;;;2.00;99.90;;;;;;5086154;28;20267;-75
2023/11/23 05:18:05;;;;;;;0.30;0.30;;;2.00;99.90;;;;;;5086067;28;20543;-74
2023/11/23 05:20:30;;;;;;;0.30;0.30;;;2.00;99.90;;;;;;5086306;28;20192;-75
2023/11/23 05:22:56;;;;;;;0.30;0.20;;;2.00;99.90;;;;;;5085688;28;20672;-74
2023/11/23 05:25:22;;;;;;;0.30;0.30;;;2.00;99.90;;;;;;5096574;28;20180;-75
2023/11/23 05:27:48;;;;;;;0.30;0.30;;;2.00;99.90;;;;;;5103456;28;20720;-74
2023/11/23 05:30:13;;;;;;;0.30;0.30;;;2.00;99.90;;;;;;5097289;28;20644;-77
2023/11/23 05:32:39;;;;;;;0.30;0.30;;;2.00;99.90;;;;;;5099733;27;20215;-73
2023/11/23 05:35:07;;;;;;;0.30;0.30;;;2.10;99.90;;;;;;5124537;27;20203;-75
2023/11/23 05:37:33;;;;;;;0.30;0.28;;;2.10;99.90;;;;;;5098588;28;20218;-74
2023/11/23 05:39:59;;;;;;;0.30;0.30;;;2.10;99.90;;;;;;5096495;28;20644;-74
2023/11/23 05:42:26;;;;;;;0.30;0.30;;;2.10;99.90;;;;;;5099244;28;20387;-75
2023/11/23 05:44:52;;;;;;;0.30;0.20;;;2.10;99.90;;;;;;5122590;27;20203;-75
2023/11/23 05:47:18;;;;;;;0.30;0.20;;;2.10;99.90;;;;;;5102887;28;20170;-75
2023/11/23 05:49:44;;;;;;;0.60;0.60;;;2.00;99.90;;;;;;5105720;28;20613;-76
2023/11/23 05:52:10;;;;;;;0.30;0.30;;;2.10;99.90;;;;;;5101594;28;20240;-74
2023/11/23 05:54:37;;;;;;;0.30;0.30;;;2.00;99.90;;;;;;5102779;28;20271;-74
2023/11/23 05:57:03;;;;;;;0.30;0.28;;;2.00;99.90;;;;;;5103416;28;20459;-74
2023/11/23 05:59:29;;;;;;;0.30;0.30;;;2.00;99.90;;;;;;5092615;28;20204;-76
2023/11/23 06:01:55;;;;;;;0.33;0.33;;;1.90;99.90;;;;;;5083123;28;20168;-76
2023/11/23 06:04:21;;;;;;;0.30;0.27;;;1.90;99.90;;;;;;5099586;28;20192;-74
2023/11/23 06:06:46;;;;;;;0.30;0.30;;;1.90;99.90;;;;;;5104639;28;20175;-75
2023/11/23 06:09:12;;;;;;;0.30;0.30;;;1.90;99.90;;;;;;5102638;28;20203;-74
2023/11/23 06:11:38;;;;;;;0.30;0.30;;;1.90;99.90;;;;;;5121291;28;20224;-74
2023/11/23 06:14:04;;;;;;;0.30;0.30;;;1.90;99.90;;;;;;5104756;28;20435;-74
2023/11/23 06:16:29;;;;;;;0.30;0.20;;;1.90;99.90;;;;;;5107273;28;20278;-76
2023/11/23 06:18:55;;;;;;;0.30;0.30;;;1.90;99.90;;;;;;5091150;28;20427;-74
2023/11/23 06:21:21;;;;;;;0.30;0.30;;;1.90;99.90;;;;;;5088095;28;20430;-75
2023/11/23 06:23:47;;;;;;;0.30;0.20;;;1.80;99.90;;;;;;5090833;28;20821;-74
2023/11/23 06:26:13;;;;;;;0.30;0.30;;;1.90;99.90;;;;;;5109278;28;20379;-74
2023/11/23 06:28:39;;;;;;;0.50;0.50;;;2.00;99.90;;;;;;5124449;27;20570;-75
2023/11/23 06:31:05;;;;;;;0.30;0.27;;;2.00;99.90;;;;;;5106569;28;20415;-76
2023/11/23 06:33:31;;;;;;;0.30;0.30;;;2.00;99.90;;;;;;5105253;28;20460;-76
2023/11/23 06:35:57;;;;;;;0.30;0.30;;;2.10;99.90;;;;;;5101768;28;20246;-74
2023/11/23 06:38:24;;;;;;;0.30;0.30;;;2.10;99.90;;;;;;5092998;28;20209;-74
2023/11/23 06:40:50;;;;;;;0.30;0.20;;;2.20;99.90;;;;;;5097846;28;20679;-74
2023/11/23 06:43:15;;;;;;;0.30;0.30;;;2.20;99.90;;;;;;5095018;28;20223;-75
2023/11/23 06:45:41;;;;;;;0.30;0.20;;;2.20;99.90;;;;;;5100897;28;20427;-74
2023/11/23 06:48:07;;;;;;;0.30;0.30;;;2.20;99.90;;;;;;5109639;27;20277;-75
2023/11/23 06:50:33;;;;;;;0.30;0.20;;;2.20;99.90;;;;;;5092336;28;20494;-76
2023/11/23 06:52:59;;;;;;;0.30;0.30;;;2.30;99.90;;;;;;5100323;28;20216;-75
2023/11/23 06:55:25;;;;;;;0.30;0.30;;;2.30;99.90;;;;;;5102307;28;20489;-76
2023/11/23 06:57:51;;;;;;;0.30;0.30;;;2.40;99.90;;;;;;5091050;28;20278;-74
2023/11/23 07:00:22;;;;;;;0.30;0.30;;;2.40;99.90;;;;;;5101768;28;20180;-74
2023/11/23 07:02:57;;;;;;;0.30;0.30;;;2.50;99.90;;;;;;5101498;28;20656;-74
2023/11/23 07:05:24;;;;;;;0.30;0.30;;;2.50;99.90;;;;;;5102848;28;20211;-76
2023/11/23 07:07:51;;;;;;;0.30;0.30;;;2.50;99.90;;;;;;5095671;28;20647;-74
2023/11/23 07:10:17;;;;;;;0.30;0.30;;;2.60;99.90;;;;;;5093837;28;20202;-75
2023/11/23 07:12:44;;;;;;;0.30;0.30;;;2.60;99.90;;;;;;5092052;27;20208;-75
2023/11/23 07:15:11;;;;;;;0.30;0.30;;;2.70;99.90;;;;;;5088983;28;20176;-74
2023/11/23 07:17:37;;;;;;;0.30;0.30;;;2.70;99.90;;;;;;5102346;28;20304;-74
2023/11/23 07:20:05;;;;;;;0.30;0.30;;;2.80;99.90;;;;;;5102623;28;20188;-74
2023/11/23 07:22:33;;;;;;;0.30;0.30;;;2.90;99.90;;;;;;5102342;28;20586;-74
2023/11/23 07:24:59;;;;;;;0.30;0.30;;;3.00;99.90;;;;;;5102973;28;20215;-74
2023/11/23 07:27:26;;;;;;;0.30;0.30;;;3.00;99.90;;;;;;5100103;28;20202;-75
2023/11/23 07:29:51;;;;;;;0.30;0.30;;;3.10;99.90;;;;;;5097493;28;20621;-76
2023/11/23 07:32:17;;;;;;;0.30;0.30;;;3.20;99.90;;;;;;5102991;28;20211;-74
2023/11/23 07:34:42;;;;;;;0.30;0.30;;;3.30;99.90;;;;;;5089477;28;20247;-74
2023/11/23 07:37:10;;;;;;;0.30;0.30;;;3.40;99.90;;;;;;5105276;27;20661;-75
2023/11/23 07:39:36;;;;;;;0.30;0.30;;;3.50;99.90;;;;;;5117707;27;20196;-74
2023/11/23 07:42:03;;;;;;;0.30;0.30;;;3.70;99.90;;;;;;5105592;27;20187;-76
2023/11/23 07:44:29;;;;;;;0.30;0.30;;;3.90;99.90;;;;;;5102520;28;20423;-75
2023/11/23 07:46:56;;;;;;;0.30;0.30;;;4.00;99.90;;;;;;5087454;28;20182;-74
2023/11/23 07:49:22;;;;;;;0.30;0.30;;;4.30;99.90;;;;;;5096043;28;20777;-74
2023/11/23 07:51:48;;;;;;;0.30;0.30;;;4.90;99.90;;;;;;5100780;28;20184;-75
2023/11/23 07:54:14;;;;;;;0.40;0.30;;;5.40;99.90;;;;;;5094273;28;20453;-75
2023/11/23 07:56:41;;;;;;;0.40;0.40;;;6.10;99.90;;;;;;5102132;28;20263;-76
2023/11/23 07:59:07;;;;;;;3.83;3.70;;;6.70;99.90;;;;;;5100081;28;20439;-75
2023/11/23 08:01:33;;;;;;;0.35;0.30;;;7.30;99.90;;;;;;5099114;28;20255;-75
2023/11/23 08:04:00;;;;;;;4.68;4.22;;;7.90;99.90;;;;;;5100653;28;20295;-75
2023/11/23 08:06:25;;;;;;;0.40;0.40;;;8.50;99.90;;;;;;5101282;28;20159;-75
2023/11/23 08:08:51;;;;;;;0.50;0.50;;;8.80;99.90;;;;;;5117385;27;20772;-76
2023/11/23 08:11:18;;;;;;;0.30;0.20;;;9.00;99.90;;;;;;5100340;28;20644;-75
2023/11/23 08:13:44;;;;;;;0.30;0.28;;;8.90;99.90;;;;;;5123255;27;20226;-75
2023/11/23 08:16:09;;;;;;;0.30;0.20;;;8.70;99.90;;;;;;5101844;28;20708;-75
2023/11/23 08:18:35;;;;;;;0.33;0.20;;;8.50;99.90;;;;;;5112041;27;20196;-76
2023/11/23 08:21:01;;;;;;;0.40;0.37;;;8.40;99.90;;;;;;5112602;27;20338;-75
2023/11/23 08:23:27;;;;;;;1.40;1.33;;;8.30;99.90;;;;;;5101595;28;20188;-76
2023/11/23 08:25:53;;;;;;;0.30;0.20;;;8.20;99.90;;;;;;5102537;28;20653;-75
2023/11/23 08:28:19;;;;;;;0.40;0.20;;;8.20;99.90;;;;;;5098046;28;20439;-76
2023/11/23 08:30:47;;;;;;;0.30;0.20;;;8.10;99.90;;;;;;5092526;28;20385;-75
2023/11/23 08:33:13;;;;;;;0.30;0.20;;;8.10;99.90;;;;;;5101178;28;20231;-77
2023/11/23 08:35:38;;;;;;;15.88;12.45;;;7.90;99.90;;;;;;5103852;28;20536;-77
2023/11/23 08:38:05;;;;;;;0.30;0.23;;;7.70;99.90;;;;;;5100654;28;20263;-75
2023/11/23 08:40:31;;;;;;;0.30;0.22;;;7.60;99.90;;;;;;5100870;28;20176;-78
2023/11/23 08:42:56;;;;;;;0.40;0.30;;;7.60;99.90;;;;;;5105479;27;20341;-77
2023/11/23 08:45:22;;;;;;;0.30;0.30;;;7.50;99.90;;;;;;5098720;28;20551;-78
2023/11/23 08:47:48;;;;;;;0.30;0.20;;;7.50;99.90;;;;;;5098836;28;20179;-75
2023/11/23 08:50:13;;;;;;;0.30;0.20;;;7.40;99.90;;;;;;5097100;28;20176;-77
2023/11/23 08:52:39;;;;;;;0.30;0.20;;;7.40;99.90;;;;;;5094942;28;20824;-76
2023/11/23 08:55:08;;;;;;;0.30;0.20;;;7.40;99.90;;;;;;5100986;28;20187;-77
2023/11/23 08:57:36;;;;;;;0.30;0.30;;;7.40;99.90;;;;;;5099749;28;20180;-75
2023/11/23 09:00:02;;;;;;;0.30;0.20;;;7.50;99.90;;;;;;5101074;28;20248;-77
2023/11/23 09:02:29;;;;;;;0.30;0.20;;;7.50;99.90;;;;;;5097210;27;20200;-77
2023/11/23 09:04:55;;;;;;;0.30;0.20;;;7.50;99.90;;;;;;5096547;28;20246;-74
2023/11/23 09:07:21;;;;;;;0.30;0.20;;;7.40;99.90;;;;;;5100736;27;20711;-74
2023/11/23 09:09:47;;;;;;;0.30;0.30;;;7.40;99.90;;;;;;5101619;28;20208;-75
2023/11/23 09:12:13;;;;;;;0.30;0.20;;;7.40;99.90;;;;;;5103549;28;20214;-75
2023/11/23 09:14:38;;;;;;;0.30;0.20;;;7.40;99.90;;;;;;5102663;28;20231;-77
2023/11/23 09:17:04;;;;;;;0.30;0.20;;;7.50;99.90;;;;;;5100354;28;20219;-74
2023/11/23 09:19:31;;;;;;;19.27;18.40;;;7.40;99.90;;;;;;5096337;28;20208;-76
2023/11/23 09:21:58;;;;;;;0.30;0.20;;;7.40;99.90;;;;;;5087965;28;20370;-75
2023/11/23 09:24:24;;;;;;;0.30;0.20;;;7.30;99.90;;;;;;5088536;28;20208;-75
2023/11/23 09:26:50;;;;;;;5.32;5.07;;;7.30;99.90;;;;;;5093437;28;20172;-76
2023/11/23 09:29:16;;;;;;;0.30;0.20;;;7.20;99.90;;;;;;5093245;28;20710;-75
2023/11/23 09:31:42;;;;;;;0.30;0.30;;;7.20;99.90;;;;;;5084766;28;20948;-76
2023/11/23 09:34:08;;;;;;;0.30;0.30;;;7.30;99.90;;;;;;5095554;28;20223;-75
2023/11/23 09:36:34;;;;;;;0.30;0.20;;;7.30;99.90;;;;;;5096852;28;20409;-76
2023/11/23 09:39:00;;;;;;;0.30;0.20;;;7.20;99.90;;;;;;5095800;28;20212;-75
2023/11/23 09:41:34;;;;;;;0.30;0.20;;;7.30;99.90;;;;;;5095160;28;20307;-76
2023/11/23 09:44:00;;;;;;;0.82;0.82;;;7.30;99.90;;;;;;5095159;28;20203;-75
2023/11/23 09:46:28;;;;;;;0.30;0.20;;;7.30;99.90;;;;;;5102572;28;20358;-76
2023/11/23 09:48:54;;;;;;;0.30;0.25;;;7.30;99.90;;;;;;5097689;28;20216;-76
2023/11/23 09:51:20;;;;;;;0.30;0.20;;;7.40;99.90;;;;;;5094579;28;20168;-75
2023/11/23 09:53:49;;;;;;;0.30;0.20;;;7.50;99.90;;;;;;5091563;28;20318;-74
2023/11/23 09:56:18;;;;;;;0.30;0.20;;;7.60;99.90;;;;;;5090277;28;20430;-75
2023/11/23 09:58:43;;;;;;;2.85;2.75;;;7.70;99.90;;;;;;5088444;28;20200;-76
2023/11/23 10:01:10;;;;;;;0.30;0.20;;;7.70;99.90;;;;;;5085940;28;20506;-77
2023/11/23 10:03:39;;;;;;;0.30;0.20;;;7.70;99.90;;;;;;5100212;28;20415;-75
2023/11/23 10:06:05;;;;;;;0.30;0.20;;;7.80;99.90;;;;;;5095429;28;20359;-76
2023/11/23 10:08:31;;;;;;;0.30;0.20;;;7.70;99.90;;;;;;5096961;28;20556;-76
2023/11/23 10:10:58;;;;;;;0.30;0.20;;;7.80;99.90;;;;;;5094337;28;20452;-75
2023/11/23 10:13:24;;;;;;;0.30;0.30;;;7.80;99.90;;;;;;5104682;28;20224;-76
2023/11/23 10:15:50;;;;;;;0.30;0.20;;;7.70;99.90;;;;;;5087963;28;20393;-76
2023/11/23 10:18:15;;;;;;;0.30;0.20;;;7.80;99.90;;;;;;5107500;28;21062;-77
2023/11/23 10:20:49;;;;;;;0.30;0.20;;;7.80;99.90;;;;;;5097955;28;20420;-76
2023/11/23 10:23:14;;;;;;;0.30;0.20;;;7.90;99.90;;;;;;5113225;28;20200;-77
2023/11/23 10:25:41;;;;;;;0.30;0.30;;;8.00;99.90;;;;;;5108428;28;20194;-76
2023/11/23 10:28:07;;;;;;;0.30;0.30;;;8.00;99.90;;;;;;5098713;28;20826;-75
2023/11/23 10:30:39;;;;;;;0.30;0.28;;;8.10;99.90;;;;;;5097969;28;20520;-76
2023/11/23 10:33:05;;;;;;;0.30;0.20;;;8.10;99.90;;;;;;5094429;28;20550;-76
2023/11/23 10:35:39;;;;;;;0.30;0.20;;;8.10;99.90;;;;;;5100286;28;20559;-74
2023/11/23 10:38:05;;;;;;;0.30;0.20;;;8.10;99.90;;;;;;5097108;28;20215;-75
2023/11/23 10:40:32;;;;;;;0.30;0.20;;;8.00;99.90;;;;;;5100395;28;20188;-74
2023/11/23 10:43:01;;;;;;;1.15;1.15;;;8.10;99.90;;;;;;5097924;28;20208;-76
2023/11/23 10:45:27;;;;;;;0.30;0.20;;;8.10;99.90;;;;;;5101831;28;20407;-75
2023/11/23 10:47:54;;;;;;;0.30;0.20;;;8.20;99.90;;;;;;5101630;28;20248;-75
2023/11/23 10:50:20;;;;;;;0.55;0.55;;;8.30;99.90;;;;;;5098438;28;20192;-76
2023/11/23 10:52:46;;;;;;;0.30;0.20;;;8.40;99.90;;;;;;5088335;28;20452;-75
2023/11/23 10:55:13;;;;;;;0.30;0.20;;;8.60;99.90;;;;;;5098067;28;20188;-76
2023/11/23 10:57:47;;;;;;;0.30;0.20;;;8.70;99.90;;;;;;5098033;28;20184;-76
2023/11/23 11:00:16;;;;;;;0.30;0.20;;;8.80;99.90;;;;;;5095514;28;20246;-76
2023/11/23 11:02:44;;;;;;;0.30;0.20;;;8.90;99.90;;;;;;5085495;28;20206;-74
2023/11/23 11:05:27;;;;;;;0.30;0.20;;;8.90;99.90;;;;;;5099066;28;20183;-76
2023/11/23 11:08:00;;;;;;;0.30;0.20;;;8.90;99.90;;;;;;5100717;28;20228;-76
2023/11/23 11:10:27;;;;;;;2.15;2.05;;;9.00;99.90;;;;;;5100318;28;20196;-75
2023/11/23 11:13:06;;;;;;;0.30;0.20;;;9.00;99.90;;;;;;5099087;28;20196;-75
2023/11/23 11:15:32;;;;;;;0.30;0.20;;;9.00;99.90;;;;;;5098760;28;20183;-76
2023/11/23 11:18:07;;;;;;;0.37;0.20;;;9.00;99.90;;;;;;5098409;28;20290;-75
2023/11/23 11:20:34;;;;;;;0.30;0.20;;;9.10;99.90;;;;;;5095123;28;20731;-76
2023/11/23 11:23:00;;;;;;;0.30;0.20;;;9.10;99.90;;;;;;5100210;28;20717;-76
2023/11/23 11:25:39;;;;;;;0.30;0.25;;;9.20;99.90;;;;;;5103915;28;20184;-76
2023/11/23 11:28:18;;;;;;;0.30;0.20;;;9.20;99.90;;;;;;5097432;28;20202;-76
2023/11/23 11:30:46;;;;;;;0.30;0.20;;;9.10;99.90;;;;;;5115571;27;20516;-76
2023/11/23 11:33:14;;;;;;;0.30;0.20;;;9.10;99.90;;;;;;5101064;28;20268;-75
2023/11/23 11:35:47;;;;;;;0.30;0.20;;;9.10;99.90;;;;;;5098105;28;20184;-76
2023/11/23 11:38:15;;;;;;;0.30;0.20;;;9.10;99.90;;;;;;5099119;28;20203;-75
2023/11/23 11:40:43;;;;;;;0.30;0.30;;;9.10;99.90;;;;;;5100891;28;20182;-76
2023/11/23 11:43:09;;;;;;;0.30;0.20;;;9.10;99.90;;;;;;5098011;28;20200;-75
2023/11/23 11:45:36;;;;;;;0.30;0.20;;;9.10;99.90;;;;;;5093316;28;20181;-76
2023/11/23 11:48:02;;;;;;;0.30;0.30;;;9.20;99.90;;;;;;5098630;28;20202;-76
2023/11/23 11:50:27;;;;;;;0.30;0.30;;;9.10;99.90;;;;;;5099133;28;20334;-75
2023/11/23 11:52:53;;;;;;;0.30;0.20;;;9.20;99.90;;;;;;5121323;27;20302;-75
2023/11/23 11:55:19;;;;;;;3.13;2.93;;;9.20;99.90;;;;;;5097384;28;20191;-75
2023/11/23 11:57:45;;;;;;;0.30;0.20;;;9.20;99.90;;;;;;5100381;28;20180;-75
2023/11/23 12:00:11;;;;;;;0.30;0.20;;;9.20;99.90;;;;;;5096486;28;21249;-75
2023/11/23 12:02:37;;;;;;;0.30;0.20;;;9.20;99.90;;;;;;5099106;28;20237;-75
2023/11/23 12:05:03;;;;;;;0.30;0.20;;;9.20;99.90;;;;;;5096757;28;20196;-76
2023/11/23 12:07:29;;;;;;;0.30;0.23;;;9.20;99.90;;;;;;5092714;28;20176;-75
2023/11/23 12:09:55;;;;;;;0.30;0.20;;;9.20;99.90;;;;;;5096725;28;20488;-75
2023/11/23 12:12:21;;;;;;;0.30;0.20;;;9.30;99.90;;;;;;5089670;28;20468;-76
2023/11/23 12:14:47;;;;;;;0.30;0.20;;;9.30;99.90;;;;;;5095530;28;20449;-75
2023/11/23 12:17:13;;;;;;;0.30;0.20;;;9.30;99.90;;;;;;5093830;28;20699;-77
2023/11/23 12:19:53;;;;;;;0.30;0.30;;;9.30;99.90;;;;;;5097988;28;20237;-77
2023/11/23 12:22:23;;;;;;;0.30;0.20;;;9.30;99.90;;;;;;5097603;28;20528;-77
2023/11/23 12:24:49;;;;;;;0.52;0.52;;;9.40;99.90;;;;;;5093223;28;20242;-77
2023/11/23 12:27:15;;;;;;;0.98;0.98;;;9.40;99.90;;;;;;5094492;28;20245;-77
2023/11/23 12:29:40;;;;;;;2.73;2.63;;;9.30;99.90;;;;;;5094192;28;20675;-75
2023/11/23 12:32:06;;;;;;;0.30;0.20;;;9.30;99.90;;;;;;5098444;28;20632;-76
2023/11/23 12:34:33;;;;;;;0.30;0.20;;;9.30;99.90;;;;;;5095453;28;20212;-76
2023/11/23 12:37:00;;;;;;;0.65;0.30;;;9.20;99.90;;;;;;5097641;28;20497;-76
2023/11/23 12:39:28;;;;;;;0.30;0.20;;;9.20;99.90;;;;;;5096475;28;20295;-75
2023/11/23 12:41:54;;;;;;;0.30;0.30;;;9.20;99.90;;;;;;5097170;28;20554;-76
2023/11/23 12:44:20;;;;;;;0.30;0.20;;;9.20;99.90;;;;;;5098052;28;20224;-76
2023/11/23 12:46:46;;;;;;;0.30;0.30;;;9.20;99.90;;;;;;5093022;28;20758;-76
2023/11/23 12:49:14;;;;;;;0.30;0.20;;;9.20;99.90;;;;;;5091853;28;20424;-75
2023/11/23 12:51:40;;;;;;;0.30;0.20;;;9.20;99.90;;;;;;5095270;28;20553;-75
2023/11/23 12:54:06;;;;;;;0.35;0.32;;;9.10;99.90;;;;;;5096679;28;20226;-76